sensor_id;sensor_type;location;lat;lon;timestamp;pressure;altitude;pressure_sealevel;temperature;humidity
55914;BME280;58179;48.776;9.124;2022-09-01T00:01:14;97573.47;;;15.25;100.00
55914;BME280;58179;48.776;9.124;2022-09-01T00:03:45;97579.34;;;15.22;100.00
55914;BME280;58179;48.776;9.124;2022-09-01T00:06:13;97576.94;;;15.21;100.00
55914;BME280;58179;48.776;9.124;2022-09-01T00:08:41;97577.19;;;15.19;100.00
55914;BME280;58179;48.776;9.124;2022-09-01T00:11:07;97582.84;;;15.18;100.00
55914;BME280;58179;48.776;9.124;2022-09-01T00:13:33;97581.50;;;15.15;100.00
55914;BME280;58179;48.776;9.124;2022-09-01T00:16:00;97574.56;;;15.14;100.00
55914;BME280;58179;48.776;9.124;2022-09-01T00:18:29;97573.50;;;15.15;100.00
55914;BME280;58179;48.776;9.124;2022-09-01T00:20:55;97575.66;;;15.13;100.00
55914;BME280;58179;48.776;9.124;2022-09-01T00:23:24;97579.94;;;15.09;100.00
55914;BME280;58179;48.776;9.124;2022-09-01T00:25:54;97580.22;;;15.07;100.00
55914;BME280;58179;48.776;9.124;2022-09-01T00:28:20;97580.47;;;15.06;100.00
55914;BME280;58179;48.776;9.124;2022-09-01T00:30:46;97578.09;;;15.04;100.00
55914;BME280;58179;48.776;9.124;2022-09-01T00:33:13;97583.97;;;15.01;100.00
55914;BME280;58179;48.776;9.124;2022-09-01T00:35:39;97578.66;;;15.01;100.00
55914;BME280;58179;48.776;9.124;2022-09-01T00:38:05;97581.84;;;14.98;100.00
55914;BME280;58179;48.776;9.124;2022-09-01T00:40:31;97580.53;;;15.01;100.00
55914;BME280;58179;48.776;9.124;2022-09-01T00:42:59;97582.13;;;14.97;100.00
55914;BME280;58179;48.776;9.124;2022-09-01T00:45:25;97575.75;;;14.93;100.00
55914;BME280;58179;48.776;9.124;2022-09-01T00:47:53;97569.34;;;14.94;100.00
55914;BME280;58179;48.776;9.124;2022-09-01T00:50:19;97570.69;;;14.91;100.00
55914;BME280;58179;48.776;9.124;2022-09-01T00:52:50;97572.03;;;14.89;100.00
55914;BME280;58179;48.776;9.124;2022-09-01T00:55:24;97570.47;;;14.88;100.00
55914;BME280;58179;48.776;9.124;2022-09-01T00:57:51;97564.59;;;14.86;100.00
55914;BME280;58179;48.776;9.124;2022-09-01T01:00:22;97571.53;;;14.87;100.00
55914;BME280;58179;48.776;9.124;2022-09-01T01:02:49;97570.47;;;14.88;100.00
55914;BME280;58179;48.776;9.124;2022-09-01T01:05:21;97572.06;;;14.84;100.00
55914;BME280;58179;48.776;9.124;2022-09-01T01:07:48;97572.31;;;14.82;100.00
55914;BME280;58179;48.776;9.124;2022-09-01T01:10:17;97564.06;;;14.84;100.00
55914;BME280;58179;48.776;9.124;2022-09-01T01:12:44;97569.13;;;14.85;100.00
55914;BME280;58179;48.776;9.124;2022-09-01T01:15:13;97570.72;;;14.81;100.00
55914;BME280;58179;48.776;9.124;2022-09-01T01:17:41;97565.69;;;14.80;100.00
55914;BME280;58179;48.776;9.124;2022-09-01T01:20:09;97570.50;;;14.78;100.00
55914;BME280;58179;48.776;9.124;2022-09-01T01:23:03;97573.19;;;14.73;100.00
55914;BME280;58179;48.776;9.124;2022-09-01T01:25:38;97569.72;;;14.72;100.00
55914;BME280;58179;48.776;9.124;2022-09-01T01:28:10;97567.06;;;14.72;100.00
55914;BME280;58179;48.776;9.124;2022-09-01T01:30:39;97560.41;;;14.69;100.00
55914;BME280;58179;48.776;9.124;2022-09-01T01:33:07;97569.47;;;14.68;100.00
55914;BME280;58179;48.776;9.124;2022-09-01T01:35:33;97569.22;;;14.60;100.00
55914;BME280;58179;48.776;9.124;2022-09-01T01:38:01;97578.00;;;14.60;100.00
55914;BME280;58179;48.776;9.124;2022-09-01T01:40:32;97576.19;;;14.56;100.00
55914;BME280;58179;48.776;9.124;2022-09-01T01:42:59;97574.56;;;14.55;100.00
55914;BME280;58179;48.776;9.124;2022-09-01T01:45:27;97576.97;;;14.56;100.00
55914;BME280;58179;48.776;9.124;2022-09-01T01:47:54;97573.78;;;14.54;100.00
55914;BME280;58179;48.776;9.124;2022-09-01T01:50:22;97561.25;;;14.55;100.00
55914;BME280;58179;48.776;9.124;2022-09-01T01:52:49;97560.72;;;14.53;100.00
55914;BME280;58179;48.776;9.124;2022-09-01T01:55:15;97567.13;;;14.52;100.00
55914;BME280;58179;48.776;9.124;2022-09-01T01:57:44;97562.88;;;14.51;100.00
55914;BME280;58179;48.776;9.124;2022-09-01T02:00:18;97566.59;;;14.50;100.00
55914;BME280;58179;48.776;9.124;2022-09-01T02:02:46;97567.69;;;14.49;100.00
55914;BME280;58179;48.776;9.124;2022-09-01T02:05:19;97570.34;;;14.49;100.00
55914;BME280;58179;48.776;9.124;2022-09-01T02:07:51;97563.41;;;14.48;100.00
55914;BME280;58179;48.776;9.124;2022-09-01T02:10:22;97580.19;;;14.48;100.00
55914;BME280;58179;48.776;9.124;2022-09-01T02:12:48;97575.94;;;14.47;100.00
55914;BME280;58179;48.776;9.124;2022-09-01T02:15:16;97574.06;;;14.48;100.00
55914;BME280;58179;48.776;9.124;2022-09-01T02:17:42;97578.06;;;14.45;100.00
55914;BME280;58179;48.776;9.124;2022-09-01T02:20:10;97573.03;;;14.39;100.00
55914;BME280;58179;48.776;9.124;2022-09-01T02:22:36;97569.56;;;14.38;100.00
55914;BME280;58179;48.776;9.124;2022-09-01T02:25:06;97571.16;;;14.34;100.00
55914;BME280;58179;48.776;9.124;2022-09-01T02:27:32;97568.47;;;14.34;100.00
55914;BME280;58179;48.776;9.124;2022-09-01T02:30:02;97568.47;;;14.34;100.00
55914;BME280;58179;48.776;9.124;2022-09-01T02:32:30;97576.97;;;14.36;100.00
55914;BME280;58179;48.776;9.124;2022-09-01T02:34:56;97575.13;;;14.31;100.00
55914;BME280;58179;48.776;9.124;2022-09-01T02:37:26;97578.09;;;14.25;100.00
55914;BME280;58179;48.776;9.124;2022-09-01T02:39:52;97573.03;;;14.23;100.00
55914;BME280;58179;48.776;9.124;2022-09-01T02:42:21;97574.09;;;14.22;100.00
55914;BME280;58179;48.776;9.124;2022-09-01T02:44:52;97576.75;;;14.22;100.00
55914;BME280;58179;48.776;9.124;2022-09-01T02:47:19;97579.16;;;14.19;100.00
55914;BME280;58179;48.776;9.124;2022-09-01T02:49:46;97573.59;;;14.20;100.00
55914;BME280;58179;48.776;9.124;2022-09-01T02:52:12;97573.03;;;14.18;100.00
55914;BME280;58179;48.776;9.124;2022-09-01T02:54:40;97570.13;;;14.20;100.00
55914;BME280;58179;48.776;9.124;2022-09-01T02:57:11;97574.66;;;14.19;100.00
55914;BME280;58179;48.776;9.124;2022-09-01T02:59:37;97565.84;;;14.19;100.00
55914;BME280;58179;48.776;9.124;2022-09-01T03:02:04;97561.59;;;14.18;100.00
55914;BME280;58179;48.776;9.124;2022-09-01T03:04:33;97565.06;;;14.18;100.00
55914;BME280;58179;48.776;9.124;2022-09-01T03:07:01;97557.88;;;14.19;100.00
55914;BME280;58179;48.776;9.124;2022-09-01T03:09:27;97559.72;;;14.18;100.00
55914;BME280;58179;48.776;9.124;2022-09-01T03:11:54;97555.47;;;14.17;100.00
55914;BME280;58179;48.776;9.124;2022-09-01T03:14:21;97548.81;;;14.15;100.00
55914;BME280;58179;48.776;9.124;2022-09-01T03:16:48;97548.56;;;14.11;100.00
55914;BME280;58179;48.776;9.124;2022-09-01T03:19:16;97552.00;;;14.07;100.00
55914;BME280;58179;48.776;9.124;2022-09-01T03:21:45;97551.50;;;14.05;100.00
55914;BME280;58179;48.776;9.124;2022-09-01T03:24:16;97551.22;;;14.01;100.00
55914;BME280;58179;48.776;9.124;2022-09-01T03:26:43;97552.03;;;14.02;100.00
55914;BME280;58179;48.776;9.124;2022-09-01T03:29:11;97561.34;;;13.99;100.00
55914;BME280;58179;48.776;9.124;2022-09-01T03:31:37;97557.13;;;13.98;100.00
55914;BME280;58179;48.776;9.124;2022-09-01T03:34:03;97561.34;;;13.99;100.00
55914;BME280;58179;48.776;9.124;2022-09-01T03:36:31;97560.03;;;13.97;100.00
55914;BME280;58179;48.776;9.124;2022-09-01T03:38:59;97556.56;;;13.91;100.00
55914;BME280;58179;48.776;9.124;2022-09-01T03:41:28;97568.28;;;13.90;100.00
55914;BME280;58179;48.776;9.124;2022-09-01T03:43:56;97566.41;;;13.85;100.00
55914;BME280;58179;48.776;9.124;2022-09-01T03:46:26;97564.81;;;13.84;100.00
55914;BME280;58179;48.776;9.124;2022-09-01T03:48:54;97565.13;;;13.83;100.00
55914;BME280;58179;48.776;9.124;2022-09-01T03:51:24;97569.34;;;13.84;100.00
55914;BME280;58179;48.776;9.124;2022-09-01T03:53:52;97570.94;;;13.80;100.00
55914;BME280;58179;48.776;9.124;2022-09-01T03:56:19;97562.97;;;13.75;100.00
55914;BME280;58179;48.776;9.124;2022-09-01T03:58:47;97559.78;;;13.73;100.00
55914;BME280;58179;48.776;9.124;2022-09-01T04:01:14;97563.50;;;13.72;100.00
55914;BME280;58179;48.776;9.124;2022-09-01T04:03:41;97567.22;;;13.71;100.00
55914;BME280;58179;48.776;9.124;2022-09-01T04:06:08;97567.75;;;13.73;100.00
55914;BME280;58179;48.776;9.124;2022-09-01T04:08:34;97569.38;;;13.74;100.00
55914;BME280;58179;48.776;9.124;2022-09-01T04:11:04;97558.97;;;13.72;100.00
55914;BME280;58179;48.776;9.124;2022-09-01T04:13:36;97562.97;;;13.70;100.00
55914;BME280;58179;48.776;9.124;2022-09-01T04:16:05;97564.03;;;13.69;100.00
55914;BME280;58179;48.776;9.124;2022-09-01T04:18:35;97565.63;;;13.70;100.00
55914;BME280;58179;48.776;9.124;2022-09-01T04:21:01;97570.94;;;13.65;100.00
55914;BME280;58179;48.776;9.124;2022-09-01T04:23:30;97568.00;;;13.61;100.00
55914;BME280;58179;48.776;9.124;2022-09-01T04:26:02;97570.41;;;13.63;100.00
55914;BME280;58179;48.776;9.124;2022-09-01T04:28:37;97565.09;;;13.63;100.00
55914;BME280;58179;48.776;9.124;2022-09-01T04:31:08;97572.81;;;13.59;100.00
55914;BME280;58179;48.776;9.124;2022-09-01T04:33:36;97564.03;;;13.53;100.00
55914;BME280;58179;48.776;9.124;2022-09-01T04:36:11;97564.31;;;13.52;100.00
55914;BME280;58179;48.776;9.124;2022-09-01T04:38:38;97572.53;;;13.50;100.00
55914;BME280;58179;48.776;9.124;2022-09-01T04:41:05;97573.59;;;13.44;100.00
55914;BME280;58179;48.776;9.124;2022-09-01T04:43:31;97576.25;;;13.44;100.00
55914;BME280;58179;48.776;9.124;2022-09-01T04:45:57;97574.41;;;13.45;100.00
55914;BME280;58179;48.776;9.124;2022-09-01T04:48:25;97578.38;;;13.47;100.00
55914;BME280;58179;48.776;9.124;2022-09-01T04:50:51;97576.25;;;13.44;100.00
55914;BME280;58179;48.776;9.124;2022-09-01T04:53:18;97572.81;;;13.44;100.00
55914;BME280;58179;48.776;9.124;2022-09-01T04:55:46;97570.66;;;13.41;100.00
55914;BME280;58179;48.776;9.124;2022-09-01T04:58:17;97571.22;;;13.38;100.00
55914;BME280;58179;48.776;9.124;2022-09-01T05:00:44;97573.59;;;13.39;100.00
55914;BME280;58179;48.776;9.124;2022-09-01T05:03:12;97578.38;;;13.42;100.00
55914;BME280;58179;48.776;9.124;2022-09-01T05:05:42;97569.34;;;13.43;100.00
55914;BME280;58179;48.776;9.124;2022-09-01T05:08:09;97574.38;;;13.40;100.00
55914;BME280;58179;48.776;9.124;2022-09-01T05:10:41;97569.59;;;13.42;100.00
55914;BME280;58179;48.776;9.124;2022-09-01T05:13:09;97558.16;;;13.31;100.00
55914;BME280;58179;48.776;9.124;2022-09-01T05:15:36;97569.34;;;13.43;100.00
55914;BME280;58179;48.776;9.124;2022-09-01T05:18:03;97573.06;;;13.47;100.00
55914;BME280;58179;48.776;9.124;2022-09-01T05:20:37;97574.94;;;13.52;100.00
55914;BME280;58179;48.776;9.124;2022-09-01T05:23:05;97568.28;;;13.54;100.00
55914;BME280;58179;48.776;9.124;2022-09-01T05:25:41;97566.97;;;13.57;100.00
55914;BME280;58179;48.776;9.124;2022-09-01T05:28:09;97580.81;;;13.59;100.00
55914;BME280;58179;48.776;9.124;2022-09-01T05:30:38;97578.66;;;13.61;100.00
55914;BME280;58179;48.776;9.124;2022-09-01T05:33:06;97566.69;;;13.64;100.00
55914;BME280;58179;48.776;9.124;2022-09-01T05:35:42;97570.16;;;13.64;100.00
55914;BME280;58179;48.776;9.124;2022-09-01T05:38:18;97570.44;;;13.68;100.00
55914;BME280;58179;48.776;9.124;2022-09-01T05:40:44;97568.28;;;13.70;100.00
55914;BME280;58179;48.776;9.124;2022-09-01T05:43:19;97573.88;;;13.73;100.00
55914;BME280;58179;48.776;9.124;2022-09-01T05:45:46;97567.50;;;13.74;100.00
55914;BME280;58179;48.776;9.124;2022-09-01T05:48:12;97572.53;;;13.76;100.00
55914;BME280;58179;48.776;9.124;2022-09-01T05:50:41;97575.47;;;13.79;100.00
55914;BME280;58179;48.776;9.124;2022-09-01T05:53:10;97574.16;;;13.82;100.00
55914;BME280;58179;48.776;9.124;2022-09-01T05:55:44;97580.78;;;13.84;100.00
55914;BME280;58179;48.776;9.124;2022-09-01T05:58:11;97579.47;;;13.87;100.00
55914;BME280;58179;48.776;9.124;2022-09-01T06:00:40;97586.94;;;13.90;100.00
55914;BME280;58179;48.776;9.124;2022-09-01T06:03:08;97584.00;;;13.97;100.00
55914;BME280;58179;48.776;9.124;2022-09-01T06:05:35;97576.00;;;14.02;100.00
55914;BME280;58179;48.776;9.124;2022-09-01T06:08:02;97581.84;;;14.04;100.00
55914;BME280;58179;48.776;9.124;2022-09-01T06:10:30;97579.19;;;14.09;100.00
55914;BME280;58179;48.776;9.124;2022-09-01T06:12:58;97581.56;;;14.10;100.00
55914;BME280;58179;48.776;9.124;2022-09-01T06:15:27;97574.38;;;14.11;100.00
55914;BME280;58179;48.776;9.124;2022-09-01T06:17:55;97582.13;;;14.12;100.00
55914;BME280;58179;48.776;9.124;2022-09-01T06:20:22;97574.94;;;14.13;100.00
55914;BME280;58179;48.776;9.124;2022-09-01T06:22:48;97575.44;;;14.15;100.00
55914;BME280;58179;48.776;9.124;2022-09-01T06:25:14;97574.09;;;14.17;100.00
55914;BME280;58179;48.776;9.124;2022-09-01T06:27:43;97575.94;;;14.22;100.00
55914;BME280;58179;48.776;9.124;2022-09-01T06:30:13;97583.66;;;14.28;100.00
55914;BME280;58179;48.776;9.124;2022-09-01T06:32:43;97574.88;;;14.38;100.00
55914;BME280;58179;48.776;9.124;2022-09-01T06:35:09;97584.19;;;14.46;100.00
55914;BME280;58179;48.776;9.124;2022-09-01T06:37:36;97579.91;;;14.55;100.00
55914;BME280;58179;48.776;9.124;2022-09-01T06:40:04;97570.03;;;14.60;100.00
55914;BME280;58179;48.776;9.124;2022-09-01T06:42:31;97574.00;;;14.68;100.00
55914;BME280;58179;48.776;9.124;2022-09-01T06:44:59;97578.22;;;14.74;100.00
55914;BME280;58179;48.776;9.124;2022-09-01T06:47:27;97572.63;;;14.81;100.00
55914;BME280;58179;48.776;9.124;2022-09-01T06:49:55;97568.06;;;14.86;100.00
55914;BME280;58179;48.776;9.124;2022-09-01T06:52:24;97570.97;;;14.90;100.00
55914;BME280;58179;48.776;9.124;2022-09-01T06:54:50;97585.09;;;14.95;100.00
55914;BME280;58179;48.776;9.124;2022-09-01T06:57:21;97580.53;;;15.01;100.00
55914;BME280;58179;48.776;9.124;2022-09-01T06:59:47;97582.34;;;15.05;100.00
55914;BME280;58179;48.776;9.124;2022-09-01T07:02:14;97590.34;;;15.10;100.00
55914;BME280;58179;48.776;9.124;2022-09-01T07:04:42;97581.25;;;15.17;100.00
55914;BME280;58179;48.776;9.124;2022-09-01T07:07:10;97583.88;;;15.22;100.00
55914;BME280;58179;48.776;9.124;2022-09-01T07:09:38;97586.50;;;15.27;100.00
55914;BME280;58179;48.776;9.124;2022-09-01T07:12:05;97590.44;;;15.34;100.00
55914;BME280;58179;48.776;9.124;2022-09-01T07:14:31;97598.16;;;15.41;100.00
55914;BME280;58179;48.776;9.124;2022-09-01T07:16:57;97589.31;;;15.45;100.00
55914;BME280;58179;48.776;9.124;2022-09-01T07:19:24;97597.00;;;15.52;100.00
55914;BME280;58179;48.776;9.124;2022-09-01T07:21:52;97602.09;;;15.54;100.00
55914;BME280;58179;48.776;9.124;2022-09-01T07:24:18;97595.13;;;15.58;100.00
55914;BME280;58179;48.776;9.124;2022-09-01T07:26:46;97603.88;;;15.68;100.00
55914;BME280;58179;48.776;9.124;2022-09-01T07:29:18;97602.75;;;15.74;100.00
55914;BME280;58179;48.776;9.124;2022-09-01T07:31:47;97598.75;;;15.77;100.00
55914;BME280;58179;48.776;9.124;2022-09-01T07:34:14;97600.03;;;15.79;100.00
55914;BME280;58179;48.776;9.124;2022-09-01T07:36:42;97603.47;;;15.85;100.00
55914;BME280;58179;48.776;9.124;2022-09-01T07:39:12;97603.44;;;15.90;100.00
55914;BME280;58179;48.776;9.124;2022-09-01T07:41:39;97606.31;;;15.99;100.00
55914;BME280;58179;48.776;9.124;2022-09-01T07:44:08;97610.25;;;16.06;100.00
55914;BME280;58179;48.776;9.124;2022-09-01T07:46:38;97607.31;;;16.08;100.00
55914;BME280;58179;48.776;9.124;2022-09-01T07:49:05;97611.25;;;16.10;100.00
55914;BME280;58179;48.776;9.124;2022-09-01T07:51:31;97613.94;;;16.10;100.00
55914;BME280;58179;48.776;9.124;2022-09-01T07:54:00;97612.31;;;16.14;100.00
55914;BME280;58179;48.776;9.124;2022-09-01T07:56:29;97626.41;;;16.20;100.00
55914;BME280;58179;48.776;9.124;2022-09-01T07:58:55;97620.78;;;16.21;100.00
55914;BME280;58179;48.776;9.124;2022-09-01T08:01:26;97626.34;;;16.25;100.00
55914;BME280;58179;48.776;9.124;2022-09-01T08:03:54;97623.34;;;16.32;100.00
55914;BME280;58179;48.776;9.124;2022-09-01T08:06:24;97623.06;;;16.33;100.00
55914;BME280;58179;48.776;9.124;2022-09-01T08:08:53;97631.28;;;16.42;100.00
55914;BME280;58179;48.776;9.124;2022-09-01T08:11:22;97630.38;;;16.51;100.00
55914;BME280;58179;48.776;9.124;2022-09-01T08:13:51;97632.72;;;16.58;100.00
55914;BME280;58179;48.776;9.124;2022-09-01T08:16:18;97635.13;;;16.59;100.00
55914;BME280;58179;48.776;9.124;2022-09-01T08:18:45;97632.94;;;16.67;100.00
55914;BME280;58179;48.776;9.124;2022-09-01T08:21:14;97629.13;;;16.73;100.00
55914;BME280;58179;48.776;9.124;2022-09-01T08:23:40;97636.00;;;16.79;100.00
55914;BME280;58179;48.776;9.124;2022-09-01T08:26:08;97635.97;;;16.84;100.00
55914;BME280;58179;48.776;9.124;2022-09-01T08:28:35;97640.19;;;16.85;100.00
55914;BME280;58179;48.776;9.124;2022-09-01T08:31:07;97632.19;;;16.85;100.00
55914;BME280;58179;48.776;9.124;2022-09-01T08:33:35;97640.50;;;16.83;100.00
55914;BME280;58179;48.776;9.124;2022-09-01T08:36:02;97638.91;;;16.82;100.00
55914;BME280;58179;48.776;9.124;2022-09-01T08:38:29;97642.59;;;16.86;100.00
55914;BME280;58179;48.776;9.124;2022-09-01T08:40:57;97635.66;;;16.85;100.00
55914;BME280;58179;48.776;9.124;2022-09-01T08:43:37;97636.44;;;16.86;100.00
55914;BME280;58179;48.776;9.124;2022-09-01T08:46:15;97640.16;;;16.90;100.00
55914;BME280;58179;48.776;9.124;2022-09-01T08:48:44;97637.41;;;16.95;100.00
55914;BME280;58179;48.776;9.124;2022-09-01T08:51:19;97636.06;;;16.97;100.00
55914;BME280;58179;48.776;9.124;2022-09-01T08:53:51;97640.53;;;17.02;100.00
55914;BME280;58179;48.776;9.124;2022-09-01T08:56:22;97640.19;;;17.09;100.00
55914;BME280;58179;48.776;9.124;2022-09-01T08:58:48;97639.13;;;17.10;100.00
55914;BME280;58179;48.776;9.124;2022-09-01T09:01:22;97642.50;;;17.15;100.00
55914;BME280;58179;48.776;9.124;2022-09-01T09:04:10;97647.31;;;17.18;100.00
55914;BME280;58179;48.776;9.124;2022-09-01T09:06:46;97642.03;;;17.13;100.00
55914;BME280;58179;48.776;9.124;2022-09-01T09:09:13;97647.03;;;17.20;100.00
55914;BME280;58179;48.776;9.124;2022-09-01T09:12:04;97651.28;;;17.21;100.00
55914;BME280;58179;48.776;9.124;2022-09-01T09:15:02;97649.63;;;17.25;100.00
55914;BME280;58179;48.776;9.124;2022-09-01T09:17:37;97649.34;;;17.26;100.00
55914;BME280;58179;48.776;9.124;2022-09-01T09:20:06;97649.53;;;17.30;100.00
55914;BME280;58179;48.776;9.124;2022-09-01T09:22:32;97652.19;;;17.35;99.79
55914;BME280;58179;48.776;9.124;2022-09-01T09:25:04;97647.25;;;17.42;99.77
55914;BME280;58179;48.776;9.124;2022-09-01T09:27:35;97645.03;;;17.49;99.20
55914;BME280;58179;48.776;9.124;2022-09-01T09:30:05;97640.91;;;17.57;97.87
55914;BME280;58179;48.776;9.124;2022-09-01T09:32:47;97646.13;;;17.67;97.97
55914;BME280;58179;48.776;9.124;2022-09-01T09:35:24;97644.38;;;17.76;97.75
55914;BME280;58179;48.776;9.124;2022-09-01T09:37:50;97645.91;;;17.82;97.98
55914;BME280;58179;48.776;9.124;2022-09-01T09:40:19;97649.13;;;17.98;97.95
55914;BME280;58179;48.776;9.124;2022-09-01T09:43:05;97655.22;;;18.03;95.19
55914;BME280;58179;48.776;9.124;2022-09-01T09:45:35;97642.13;;;18.02;92.41
55914;BME280;58179;48.776;9.124;2022-09-01T09:48:07;97649.28;;;18.06;93.29
55914;BME280;58179;48.776;9.124;2022-09-01T09:50:36;97646.31;;;18.08;94.19
55914;BME280;58179;48.776;9.124;2022-09-01T09:53:16;97643.84;;;18.11;94.41
55914;BME280;58179;48.776;9.124;2022-09-01T09:55:54;97636.84;;;18.29;95.48
55914;BME280;58179;48.776;9.124;2022-09-01T09:58:23;97641.13;;;18.44;94.54
55914;BME280;58179;48.776;9.124;2022-09-01T10:01:01;97632.69;;;18.50;92.70
55914;BME280;58179;48.776;9.124;2022-09-01T10:03:38;97630.78;;;18.70;93.21
55914;BME280;58179;48.776;9.124;2022-09-01T10:06:11;97627.91;;;18.93;93.59
55914;BME280;58179;48.776;9.124;2022-09-01T10:08:41;97622.25;;;19.09;90.38
55914;BME280;58179;48.776;9.124;2022-09-01T10:11:23;97621.53;;;19.17;87.98
55914;BME280;58179;48.776;9.124;2022-09-01T10:13:51;97620.81;;;19.25;87.87
55914;BME280;58179;48.776;9.124;2022-09-01T10:16:26;97628.75;;;19.30;87.97
55914;BME280;58179;48.776;9.124;2022-09-01T10:18:56;97622.47;;;19.34;84.17
55914;BME280;58179;48.776;9.124;2022-09-01T10:21:31;97623.47;;;19.52;84.25
55914;BME280;58179;48.776;9.124;2022-09-01T10:23:59;97626.66;;;19.54;84.52
55914;BME280;58179;48.776;9.124;2022-09-01T10:26:31;97629.13;;;19.51;84.83
55914;BME280;58179;48.776;9.124;2022-09-01T10:29:05;97625.97;;;19.49;85.27
55914;BME280;58179;48.776;9.124;2022-09-01T10:31:34;97627.84;;;19.48;86.69
55914;BME280;58179;48.776;9.124;2022-09-01T10:34:04;97628.06;;;19.52;87.54
55914;BME280;58179;48.776;9.124;2022-09-01T10:36:32;97626.34;;;19.56;85.47
55914;BME280;58179;48.776;9.124;2022-09-01T10:39:00;97627.50;;;19.63;85.89
55914;BME280;58179;48.776;9.124;2022-09-01T10:41:51;97626.03;;;19.57;84.12
55914;BME280;58179;48.776;9.124;2022-09-01T10:44:22;97619.38;;;19.55;83.82
55914;BME280;58179;48.776;9.124;2022-09-01T10:46:51;97620.81;;;19.39;79.68
55914;BME280;58179;48.776;9.124;2022-09-01T10:50:01;97620.88;;;19.33;82.50
55914;BME280;58179;48.776;9.124;2022-09-01T10:52:55;97612.38;;;19.31;83.72
55914;BME280;58179;48.776;9.124;2022-09-01T10:55:24;97616.09;;;19.44;84.58
55914;BME280;58179;48.776;9.124;2022-09-01T10:58:01;97605.78;;;19.74;81.73
55914;BME280;58179;48.776;9.124;2022-09-01T11:00:50;97604.75;;;19.83;80.19
55914;BME280;58179;48.776;9.124;2022-09-01T11:03:53;97600.50;;;19.82;81.71
55914;BME280;58179;48.776;9.124;2022-09-01T11:06:53;97600.78;;;19.81;82.37
55914;BME280;58179;48.776;9.124;2022-09-01T11:09:26;97601.00;;;19.70;80.54
55914;BME280;58179;48.776;9.124;2022-09-01T11:15:03;97596.50;;;19.57;78.11
55914;BME280;58179;48.776;9.124;2022-09-01T11:17:32;97596.50;;;19.57;77.06
55914;BME280;58179;48.776;9.124;2022-09-01T11:20:09;97593.28;;;19.47;72.19
55914;BME280;58179;48.776;9.124;2022-09-01T11:23:00;97595.34;;;19.72;72.95
55914;BME280;58179;48.776;9.124;2022-09-01T11:25:40;97593.47;;;19.73;70.27
55914;BME280;58179;48.776;9.124;2022-09-01T11:28:35;97595.34;;;19.94;72.90
55914;BME280;58179;48.776;9.124;2022-09-01T11:31:28;97585.09;;;19.96;73.42
55914;BME280;58179;48.776;9.124;2022-09-01T11:34:15;97587.53;;;20.06;72.04
55914;BME280;58179;48.776;9.124;2022-09-01T11:36:55;97586.19;;;19.95;73.44
55914;BME280;58179;48.776;9.124;2022-09-01T11:39:49;97592.13;;;19.84;73.44
55914;BME280;58179;48.776;9.124;2022-09-01T11:42:19;97583.28;;;19.83;76.65
55914;BME280;58179;48.776;9.124;2022-09-01T11:44:51;97584.44;;;19.91;78.08
55914;BME280;58179;48.776;9.124;2022-09-01T11:47:21;97588.13;;;20.03;78.35
55914;BME280;58179;48.776;9.124;2022-09-01T11:49:54;97587.44;;;20.20;79.61
55914;BME280;58179;48.776;9.124;2022-09-01T11:52:24;97581.41;;;20.37;72.72
55914;BME280;58179;48.776;9.124;2022-09-01T11:54:52;97577.34;;;20.48;72.87
55914;BME280;58179;48.776;9.124;2022-09-01T11:57:29;97576.53;;;20.47;70.90
55914;BME280;58179;48.776;9.124;2022-09-01T11:59:57;97571.00;;;20.53;70.35
55914;BME280;58179;48.776;9.124;2022-09-01T12:02:26;97567.78;;;20.73;72.47
55914;BME280;58179;48.776;9.124;2022-09-01T12:04:55;97569.41;;;20.91;72.45
55914;BME280;58179;48.776;9.124;2022-09-01T12:07:41;97564.38;;;21.07;72.91
55914;BME280;58179;48.776;9.124;2022-09-01T12:10:23;97567.59;;;21.17;72.28
55914;BME280;58179;48.776;9.124;2022-09-01T12:13:04;97563.78;;;21.18;73.45
55914;BME280;58179;48.776;9.124;2022-09-01T12:15:30;97555.72;;;21.27;74.29
55914;BME280;58179;48.776;9.124;2022-09-01T12:18:13;97566.03;;;21.42;72.99
55914;BME280;58179;48.776;9.124;2022-09-01T12:20:39;97554.44;;;21.59;73.26
55914;BME280;58179;48.776;9.124;2022-09-01T12:23:18;97559.84;;;21.68;74.36
55914;BME280;58179;48.776;9.124;2022-09-01T12:25:49;97559.22;;;21.71;74.60
55914;BME280;58179;48.776;9.124;2022-09-01T12:28:15;97548.44;;;21.71;69.22
55914;BME280;58179;48.776;9.124;2022-09-01T12:30:41;97555.03;;;21.90;68.31
55914;BME280;58179;48.776;9.124;2022-09-01T12:33:11;97553.66;;;22.02;67.42
55914;BME280;58179;48.776;9.124;2022-09-01T12:35:39;97561.03;;;22.22;70.21
55914;BME280;58179;48.776;9.124;2022-09-01T12:38:21;97552.41;;;22.37;69.35
55914;BME280;58179;48.776;9.124;2022-09-01T12:40:51;97551.53;;;22.62;71.33
55914;BME280;58179;48.776;9.124;2022-09-01T12:43:35;97547.84;;;22.75;68.38
55914;BME280;58179;48.776;9.124;2022-09-01T12:46:04;97556.16;;;22.91;69.07
55914;BME280;58179;48.776;9.124;2022-09-01T12:48:34;97549.81;;;22.87;67.45
55914;BME280;58179;48.776;9.124;2022-09-01T12:51:03;97559.56;;;22.80;70.06
55914;BME280;58179;48.776;9.124;2022-09-01T12:53:33;97555.50;;;22.56;69.23
55914;BME280;58179;48.776;9.124;2022-09-01T12:56:19;97554.66;;;22.26;68.89
55914;BME280;58179;48.776;9.124;2022-09-01T12:58:49;97554.56;;;22.06;70.71
55914;BME280;58179;48.776;9.124;2022-09-01T13:01:30;97548.44;;;21.79;71.81
55914;BME280;58179;48.776;9.124;2022-09-01T13:04:22;97555.41;;;21.63;72.11
55914;BME280;58179;48.776;9.124;2022-09-01T13:06:49;97553.34;;;21.34;65.50
55914;BME280;58179;48.776;9.124;2022-09-01T13:09:16;97553.34;;;21.34;70.83
55914;BME280;58179;48.776;9.124;2022-09-01T13:11:44;97553.19;;;21.31;64.42
55914;BME280;58179;48.776;9.124;2022-09-01T13:14:14;97548.13;;;21.38;64.48